Time;durP1;ratioP1;P1;durP2;ratioP2;P2;SDS_P1;SDS_P2;PMS_P1;PMS_P2;Temp;Humidity;BMP_temperature;BMP_pressure;BME280_temperature;BME280_humidity;BME280_pressure;Samples;Min_cycle;Max_cycle;Signal;HPM_P1;HPM_P2
2023/07/04 00:01:12;;;;;;;;;6.00;4.67;;;;;22.19;39.92;101015.81;5020924;28;45454;-82
2023/07/04 00:03:40;;;;;;;;;8.33;8.00;;;;;22.46;39.57;101056.47;5020829;28;45388;-80
2023/07/04 00:06:08;;;;;;;;;9.33;8.33;;;;;22.39;39.58;101045.19;5038692;28;45523;-80
2023/07/04 00:08:34;;;;;;;;;17.00;11.00;;;;;22.48;39.62;101061.75;5018804;28;45329;-79
2023/07/04 00:11:03;;;;;;;;;13.67;12.00;;;;;22.49;39.63;101058.16;5037188;28;46570;-81
2023/07/04 00:13:31;;;;;;;;;11.33;11.00;;;;;22.28;40.27;101054.59;5020974;28;45521;-74
2023/07/04 00:16:00;;;;;;;;;14.67;11.67;;;;;22.28;40.32;101058.13;5025895;28;45530;-80
2023/07/04 00:18:28;;;;;;;;;11.67;11.00;;;;;22.31;40.32;101065.16;5036415;28;46017;-77
2023/07/04 00:20:59;;;;;;;;;15.00;12.33;;;;;22.06;40.39;101028.75;5028691;28;45497;-76
2023/07/04 00:23:27;;;;;;;;;11.00;10.00;;;;;22.25;40.51;101060.91;5037489;28;45549;-79
2023/07/04 00:25:54;;;;;;;;;14.33;10.00;;;;;22.25;40.32;101055.56;5037221;28;45426;-82
2023/07/04 00:28:21;;;;;;;;;15.33;10.67;;;;;22.28;40.24;101065.25;5037770;28;45489;-80
2023/07/04 00:30:48;;;;;;;;;14.33;8.33;;;;;22.19;40.24;101054.00;5036447;28;46200;-81
2023/07/04 00:33:16;;;;;;;;;9.00;7.00;;;;;22.25;40.19;101055.56;5038771;28;45398;-75
2023/07/04 00:35:43;;;;;;;;;8.00;8.00;;;;;22.30;40.02;101061.59;5019900;28;45328;-80
2023/07/04 00:38:09;;;;;;;;;8.33;7.67;;;;;22.16;40.06;101034.59;5038721;28;45288;-79
2023/07/04 00:40:35;;;;;;;;;7.00;6.67;;;;;22.21;40.37;101046.00;5036462;28;46306;-79
2023/07/04 00:43:04;;;;;;;;;7.00;5.00;;;;;22.14;40.25;101045.34;5038789;28;45685;-80
2023/07/04 00:45:42;;;;;;;;;9.33;7.33;;;;;22.17;40.53;101055.00;5040909;28;45777;-80
2023/07/04 00:48:14;;;;;;;;;12.00;6.67;;;;;22.13;40.81;101056.91;5041801;28;45386;-81
2023/07/04 00:50:45;;;;;;;;;8.00;7.67;;;;;22.10;40.62;101051.72;5041560;28;46262;-82
2023/07/04 00:53:14;;;;;;;;;6.00;6.00;;;;;22.03;40.83;101050.22;5040392;28;45252;-82
2023/07/04 00:55:48;;;;;;;;;5.33;5.33;;;;;21.99;40.85;101062.81;5041160;28;45585;-81
2023/07/04 00:58:17;;;;;;;;;6.33;3.67;;;;;21.93;41.32;101057.75;5022695;28;45331;-80
2023/07/04 01:00:44;;;;;;;;;9.00;7.33;;;;;21.92;41.46;101058.66;5034326;28;46124;-82
2023/07/04 01:03:14;;;;;;;;;10.67;7.33;;;;;21.90;41.11;101060.53;5035217;28;45503;-81
2023/07/04 01:06:04;;;;;;;;;9.67;7.00;;;;;21.59;41.35;101004.88;5027288;28;45549;-80
2023/07/04 01:08:38;;;;;;;;;7.00;7.00;;;;;21.80;41.59;101053.81;5045925;28;45260;-75
2023/07/04 01:11:10;;;;;;;;;5.33;5.33;;;;;21.89;41.26;101060.59;5032241;28;46150;-81
2023/07/04 01:13:39;;;;;;;;;2.00;2.00;;;;;21.91;41.58;101069.41;5019626;28;45523;-79
2023/07/04 01:16:10;;;;;;;;;8.00;5.00;;;;;21.79;41.86;101062.75;5019450;28;45416;-76
2023/07/04 01:18:38;;;;;;;;;7.00;5.33;;;;;21.68;42.26;101064.97;5018111;28;45419;-80
2023/07/04 01:21:06;;;;;;;;;5.00;5.00;;;;;21.67;42.20;101060.56;5018810;28;46225;-78
2023/07/04 01:23:43;;;;;;;;;6.00;5.67;;;;;21.72;42.08;101062.13;5018015;28;45412;-77
2023/07/04 01:26:22;;;;;;;;;6.00;4.00;;;;;21.74;41.87;101065.59;5000291;28;46101;-78
2023/07/04 01:28:53;;;;;;;;;5.00;5.00;;;;;21.78;41.80;101069.00;5018394;28;45445;-75
2023/07/04 01:31:25;;;;;;;;;5.00;4.00;;;;;21.77;41.57;101060.13;5018529;28;46687;-73
2023/07/04 01:33:51;;;;;;;;;2.67;2.67;;;;;21.83;41.99;101068.81;5018337;28;45519;-75
2023/07/04 01:36:22;;;;;;;;;8.33;4.00;;;;;21.81;41.80;101068.91;5019879;28;45538;-74
2023/07/04 01:38:48;;;;;;;;;7.00;5.00;;;;;21.83;41.97;101080.38;5020363;28;45376;-74
2023/07/04 01:41:15;;;;;;;;;6.33;5.67;;;;;21.71;42.26;101067.50;5017690;28;45511;-73
2023/07/04 01:43:50;;;;;;;;;5.00;4.67;;;;;21.56;42.04;101045.84;5015721;28;45511;-80
2023/07/04 01:46:17;;;;;;;;;1.67;1.67;;;;;21.76;42.23;101082.41;5017478;28;45473;-74
2023/07/04 01:48:42;;;;;;;;;4.00;4.00;;;;;21.59;41.95;101056.41;5017478;28;45270;-73
2023/07/04 01:51:11;;;;;;;;;6.33;5.33;;;;;21.70;41.91;101071.13;5017828;28;45724;-79
2023/07/04 01:53:36;;;;;;;;;8.33;5.00;;;;;21.68;41.93;101063.16;5017275;28;45486;-74
2023/07/04 01:56:02;;;;;;;;;6.33;4.00;;;;;21.79;41.54;101079.63;5023121;28;45584;-73
2023/07/04 01:58:38;;;;;;;;;6.33;3.33;;;;;21.80;41.54;101080.47;5044317;28;45821;-76
2023/07/04 02:01:06;;;;;;;;;9.33;6.00;;;;;21.75;41.70;101066.47;5044079;28;45271;-76
2023/07/04 02:03:36;;;;;;;;;4.33;4.33;;;;;21.78;41.75;101079.66;5044427;28;45449;-78
2023/07/04 02:06:09;;;;;;;;;4.67;3.67;;;;;21.77;41.97;101080.59;5045457;28;45375;-80
2023/07/04 02:09:03;;;;;;;;;7.00;4.67;;;;;21.57;42.11;101052.94;5045251;28;45323;-77
2023/07/04 02:11:29;;;;;;;;;6.67;4.00;;;;;21.52;42.28;101056.69;5012713;28;46556;-74
2023/07/04 02:13:55;;;;;;;;;6.00;5.00;;;;;21.66;42.12;101078.34;5039911;28;45461;-74
2023/07/04 02:16:21;;;;;;;;;4.67;4.67;;;;;21.61;42.45;101061.66;5040475;28;45520;-72
2023/07/04 02:18:47;;;;;;;;;7.33;5.33;;;;;21.62;42.34;101066.09;5040856;28;45524;-73
2023/07/04 02:21:12;;;;;;;;;5.33;4.00;;;;;21.63;42.64;101064.28;5041443;28;45929;-72
2023/07/04 02:23:44;;;;;;;;;6.00;4.33;;;;;21.55;42.55;101060.13;5024542;28;45363;-73
2023/07/04 02:26:12;;;;;;;;;5.00;4.00;;;;;21.51;42.95;101058.50;5041728;28;45315;-73
2023/07/04 02:28:39;;;;;;;;;5.33;5.33;;;;;21.32;43.37;101060.94;5043332;28;45282;-73
2023/07/04 02:31:05;;;;;;;;;6.67;5.33;;;;;21.28;43.44;101061.13;5024466;28;46924;-75
2023/07/04 02:33:31;;;;;;;;;6.00;4.00;;;;;21.20;43.62;101052.56;5042332;28;45268;-79
2023/07/04 02:35:56;;;;;;;;;3.33;3.33;;;;;21.24;43.66;101059.53;5042078;28;45308;-77
2023/07/04 02:38:22;;;;;;;;;5.00;5.00;;;;;21.21;43.64;101052.47;5041015;28;45491;-80
2023/07/04 02:40:49;;;;;;;;;5.67;3.33;;;;;21.10;43.47;101031.59;5022750;28;46580;-80
2023/07/04 02:43:15;;;;;;;;;5.33;5.33;;;;;21.20;43.87;101058.75;5041729;28;45323;-80
2023/07/04 02:45:41;;;;;;;;;7.33;5.67;;;;;20.86;44.03;101011.19;5041798;28;45391;-81
2023/07/04 02:48:07;;;;;;;;;7.67;4.33;;;;;21.00;44.03;101048.84;5041362;28;45456;-81
2023/07/04 02:50:33;;;;;;;;;3.67;3.67;;;;;20.90;44.34;101028.78;5041578;28;46165;-80
2023/07/04 02:52:59;;;;;;;;;5.00;4.00;;;;;21.11;44.24;101051.09;5041139;28;45270;-79
2023/07/04 02:55:25;;;;;;;;;6.67;6.67;;;;;21.11;44.00;101051.09;5040672;28;45669;-79
2023/07/04 02:57:51;;;;;;;;;4.00;3.00;;;;;21.10;44.15;101050.22;5041387;28;45253;-80
2023/07/04 03:00:17;;;;;;;;;3.67;3.33;;;;;21.03;44.20;101031.88;5022648;28;45435;-78
2023/07/04 03:02:43;;;;;;;;;8.67;4.33;;;;;21.06;44.02;101037.94;5040800;28;45411;-80
2023/07/04 03:05:09;;;;;;;;;6.00;4.00;;;;;21.13;43.94;101044.78;5043060;28;45509;-81
2023/07/04 03:07:35;;;;;;;;;5.67;4.00;;;;;21.10;44.09;101052.03;5042550;28;45447;-80
2023/07/04 03:10:00;;;;;;;;;4.00;4.00;;;;;20.89;44.43;101040.38;5042398;28;45926;-78
2023/07/04 03:12:27;;;;;;;;;6.00;5.00;;;;;20.82;45.20;101050.34;5043656;28;45569;-81
2023/07/04 03:14:52;;;;;;;;;4.67;3.67;;;;;20.81;45.14;101050.41;5045387;28;45253;-79
2023/07/04 03:17:18;;;;;;;;;7.00;3.67;;;;;20.71;45.08;101028.56;5041977;28;45249;-75
2023/07/04 03:19:43;;;;;;;;;6.00;4.00;;;;;20.79;44.87;101042.50;5040461;28;45525;-77
2023/07/04 03:22:09;;;;;;;;;5.67;3.00;;;;;20.87;44.77;101050.19;5043808;28;45481;-75
2023/07/04 03:24:36;;;;;;;;;6.67;5.00;;;;;20.82;44.59;101041.50;5041836;28;45319;-76
2023/07/04 03:27:02;;;;;;;;;3.00;3.00;;;;;20.73;44.79;101035.56;5039905;28;45490;-79
2023/07/04 03:29:27;;;;;;;;;6.33;4.33;;;;;20.67;44.94;101025.16;5039765;28;45393;-74
2023/07/04 03:31:54;;;;;;;;;5.33;4.33;;;;;20.68;44.90;101029.56;5039515;28;45394;-82
2023/07/04 03:34:20;;;;;;;;;4.00;4.00;;;;;20.64;44.79;101011.09;5022152;28;45268;-78
2023/07/04 03:36:45;;;;;;;;;6.67;4.00;;;;;20.83;44.59;101033.44;5039753;28;45384;-79
2023/07/04 03:39:11;;;;;;;;;4.67;3.67;;;;;20.85;44.92;101042.25;5039587;28;45454;-81
2023/07/04 03:41:36;;;;;;;;;7.67;4.00;;;;;20.54;45.24;101023.81;5039956;28;45437;-79
2023/07/04 03:44:02;;;;;;;;;7.00;4.33;;;;;20.51;45.44;101023.94;5021701;28;45384;-79
2023/07/04 03:46:28;;;;;;;;;5.00;4.67;;;;;20.36;45.41;101004.06;5040847;28;45321;-80
2023/07/04 03:48:53;;;;;;;;;3.33;1.67;;;;;20.52;45.19;101029.22;5039633;28;45360;-78
2023/07/04 03:51:19;;;;;;;;;3.00;3.00;;;;;20.52;45.15;101021.22;5040014;28;45337;-77
2023/07/04 03:53:44;;;;;;;;;4.33;4.00;;;;;20.61;44.90;101029.81;5041964;28;45468;-78
2023/07/04 03:56:11;;;;;;;;;4.33;4.00;;;;;20.52;44.91;101023.00;5023314;28;45395;-76
2023/07/04 03:58:37;;;;;;;;;4.00;3.00;;;;;20.57;44.91;101028.19;5042428;28;45343;-74
2023/07/04 04:01:06;;;;;;;;;5.00;4.00;;;;;20.59;44.76;101045.84;5041141;28;45389;-78
2023/07/04 04:03:36;;;;;;;;;6.00;4.00;;;;;20.63;44.93;101035.97;5023075;28;45431;-72
2023/07/04 04:06:03;;;;;;;;;4.67;4.00;;;;;20.57;45.33;101029.06;5039292;28;45463;-73
2023/07/04 04:08:28;;;;;;;;;5.00;4.00;;;;;20.67;45.00;101026.97;5039046;28;46418;-77
2023/07/04 04:10:54;;;;;;;;;6.00;5.67;;;;;20.61;45.48;101027.16;5039137;28;45778;-77
2023/07/04 04:13:20;;;;;;;;;6.00;6.00;;;;;20.67;45.41;101024.31;5040557;28;45390;-78
2023/07/04 04:15:46;;;;;;;;;6.00;4.33;;;;;20.54;45.68;101019.34;5039382;28;45608;-78
2023/07/04 04:18:12;;;;;;;;;8.33;5.00;;;;;20.53;45.34;101032.72;5040404;28;45620;-78
2023/07/04 04:20:41;;;;;;;;;7.67;4.67;;;;;20.58;45.31;101029.94;5026544;28;45536;-80
2023/07/04 04:23:07;;;;;;;;;6.33;4.33;;;;;20.38;45.36;100988.00;5034436;28;45380;-80
2023/07/04 04:25:38;;;;;;;;;4.67;4.00;;;;;20.61;45.37;101041.34;5053946;28;45341;-80
2023/07/04 04:28:06;;;;;;;;;5.67;4.33;;;;;20.54;45.27;101034.47;5051569;28;45402;-78
2023/07/04 04:30:32;;;;;;;;;5.00;4.00;;;;;20.62;45.26;101036.88;5043900;28;45336;-75
2023/07/04 04:33:02;;;;;;;;;7.33;6.00;;;;;20.60;45.33;101039.63;5041353;28;45351;-76
2023/07/04 04:35:31;;;;;;;;;4.33;4.00;;;;;20.72;45.29;101049.81;5040952;28;45546;-78
2023/07/04 04:37:57;;;;;;;;;4.00;4.00;;;;;20.82;44.89;101041.50;5040400;28;45315;-79
2023/07/04 04:40:22;;;;;;;;;6.33;5.00;;;;;20.86;44.74;101048.47;5039874;28;45355;-80
2023/07/04 04:42:53;;;;;;;;;6.00;4.33;;;;;20.84;44.72;101043.19;5041961;28;45529;-81
2023/07/04 04:45:19;;;;;;;;;4.33;4.00;;;;;20.92;44.66;101042.91;5042475;28;45317;-81
2023/07/04 04:47:52;;;;;;;;;5.33;3.00;;;;;20.86;44.60;101035.16;5042423;28;45387;-79
2023/07/04 04:50:24;;;;;;;;;7.00;5.33;;;;;20.83;44.44;101016.63;5024494;28;45475;-81
2023/07/04 04:52:51;;;;;;;;;8.00;5.67;;;;;20.87;44.53;101021.78;5040687;28;45744;-80
2023/07/04 04:55:17;;;;;;;;;3.67;2.00;;;;;20.98;44.72;101045.38;5039552;28;45363;-81
2023/07/04 04:57:43;;;;;;;;;7.00;4.67;;;;;20.96;44.61;101036.56;5041799;28;45389;-79
2023/07/04 05:00:12;;;;;;;;;5.00;5.00;;;;;20.81;44.68;101022.00;5043614;28;45249;-83
2023/07/04 05:02:37;;;;;;;;;6.33;5.33;;;;;20.66;45.36;101004.78;5040453;28;45257;-80
2023/07/04 05:05:04;;;;;;;;;3.67;3.00;;;;;20.69;45.56;101031.31;5024465;28;45513;-80
2023/07/04 05:07:29;;;;;;;;;8.33;5.33;;;;;20.69;45.68;101035.72;5038879;28;46797;-78
2023/07/04 05:09:57;;;;;;;;;6.67;4.00;;;;;20.61;45.69;101030.69;5038759;28;45358;-81
2023/07/04 05:12:23;;;;;;;;;6.33;5.00;;;;;20.72;45.45;101035.66;5040776;28;45400;-81
2023/07/04 05:14:49;;;;;;;;;5.33;4.33;;;;;20.77;45.38;101032.81;5041034;28;45327;-82
2023/07/04 05:17:15;;;;;;;;;8.00;5.00;;;;;20.88;45.06;101042.16;5039332;28;45418;-77
2023/07/04 05:19:41;;;;;;;;;4.00;4.00;;;;;20.92;45.12;101043.78;5039088;28;45434;-79
2023/07/04 05:22:06;;;;;;;;;5.00;5.00;;;;;20.95;44.88;101033.03;5039167;28;45402;-78
2023/07/04 05:24:32;;;;;;;;;4.00;4.00;;;;;21.04;44.81;101046.91;5023961;28;45353;-80
2023/07/04 05:27:00;;;;;;;;;6.00;4.67;;;;;21.01;44.71;101029.25;5025249;28;45406;-78
2023/07/04 05:29:26;;;;;;;;;6.00;6.00;;;;;21.15;44.52;101042.94;5046971;28;45244;-77
2023/07/04 05:31:51;;;;;;;;;10.33;5.67;;;;;21.25;44.42;101035.47;5044161;28;45419;-78
2023/07/04 05:34:17;;;;;;;;;8.00;6.67;;;;;21.31;44.57;101031.72;5045425;28;45403;-78
2023/07/04 05:36:43;;;;;;;;;7.67;4.33;;;;;21.21;44.33;101009.88;5045254;28;45415;-78
2023/07/04 05:39:08;;;;;;;;;7.00;5.00;;;;;21.37;44.49;101028.81;5044208;28;45462;-76
2023/07/04 05:41:36;;;;;;;;;6.33;5.67;;;;;21.44;44.35;101041.00;5024125;28;45348;-81
2023/07/04 05:44:07;;;;;;;;;11.67;5.00;;;;;21.43;44.45;101036.63;5042384;28;45409;-81
2023/07/04 05:46:32;;;;;;;;;8.00;5.00;;;;;21.32;44.52;101020.13;5041689;28;46257;-81
2023/07/04 05:48:58;;;;;;;;;9.33;7.00;;;;;21.46;44.15;101049.81;5025189;28;45473;-79
2023/07/04 05:51:26;;;;;;;;;12.00;6.67;;;;;21.37;44.37;101032.34;5044572;28;45392;-78
2023/07/04 05:53:53;;;;;;;;;9.33;5.33;;;;;21.34;44.65;101039.59;5025393;28;45537;-77
2023/07/04 05:56:27;;;;;;;;;8.00;6.00;;;;;21.30;44.66;101043.28;5041685;28;46202;-76
2023/07/04 05:58:55;;;;;;;;;6.33;5.00;;;;;21.37;44.51;101052.78;5023572;28;45380;-77
2023/07/04 06:01:32;;;;;;;;;6.00;4.00;;;;;21.44;44.51;101042.81;5041134;28;45257;-75
2023/07/04 06:03:59;;;;;;;;;5.00;4.00;;;;;21.59;44.38;101045.75;5040983;28;45422;-74
2023/07/04 06:06:30;;;;;;;;;5.00;4.33;;;;;21.67;44.05;101049.91;5041001;28;45953;-74
2023/07/04 06:08:58;;;;;;;;;5.00;3.33;;;;;21.66;44.11;101025.03;5040081;28;45297;-79
2023/07/04 06:11:29;;;;;;;;;7.67;5.67;;;;;21.74;44.01;101040.75;5041235;28;45416;-75
2023/07/04 06:13:55;;;;;;;;;6.33;4.00;;;;;21.70;44.02;101050.66;5041428;28;45438;-74
2023/07/04 06:16:21;;;;;;;;;8.67;5.33;;;;;21.63;44.33;101040.28;5040955;28;46069;-73
2023/07/04 06:18:47;;;;;;;;;6.67;6.00;;;;;21.54;44.02;101039.72;5042744;28;45391;-73
2023/07/04 06:21:18;;;;;;;;;11.50;5.50;;;;;21.56;44.23;101037.00;5040973;28;45506;-73
2023/07/04 06:23:44;;;;;;;;;10.33;7.33;;;;;21.26;44.15;101029.22;5041174;28;45434;-74
2023/07/04 06:26:11;;;;;;;;;12.67;7.00;;;;;21.28;44.50;101029.16;5024648;28;46873;-74
2023/07/04 06:28:39;;;;;;;;;7.33;5.33;;;;;21.31;44.05;101018.41;5042298;28;45319;-76
2023/07/04 06:31:06;;;;;;;;;6.00;5.00;;;;;21.21;44.28;101031.16;5040566;28;45316;-79
2023/07/04 06:33:33;;;;;;;;;12.00;6.00;;;;;21.12;44.92;101042.19;5040377;28;45369;-78
2023/07/04 06:35:59;;;;;;;;;9.33;8.33;;;;;21.01;45.12;101037.25;5041217;28;45959;-75
2023/07/04 06:38:26;;;;;;;;;9.67;6.00;;;;;21.05;45.34;101038.88;5040892;28;45377;-78
2023/07/04 06:41:00;;;;;;;;;6.00;5.00;;;;;21.09;45.25;101036.97;5038677;28;45430;-81
2023/07/04 06:43:27;;;;;;;;;7.00;5.00;;;;;21.14;45.11;101022.56;5039947;28;45505;-77
2023/07/04 06:45:54;;;;;;;;;14.67;7.33;;;;;21.17;45.11;101032.25;5022033;28;46683;-78
2023/07/04 06:48:25;;;;;;;;;9.00;8.33;;;;;21.32;45.15;101020.13;5038765;28;45455;-77
2023/07/04 06:51:09;;;;;;;;;7.67;6.00;;;;;21.37;44.84;101023.47;5037581;28;45514;-80
2023/07/04 06:53:35;;;;;;;;;12.33;8.00;;;;;21.38;44.37;101038.56;5032857;28;45439;-80
2023/07/04 06:56:16;;;;;;;;;7.67;6.33;;;;;21.30;44.20;101036.16;5040615;28;45281;-77
2023/07/04 06:58:46;;;;;;;;;5.33;3.67;;;;;21.48;44.01;101045.28;5040781;28;45333;-78
2023/07/04 07:01:12;;;;;;;;;7.00;6.00;;;;;21.62;43.85;101036.78;5042908;28;45307;-78
2023/07/04 07:03:39;;;;;;;;;5.67;5.67;;;;;21.89;43.45;101053.44;5046235;28;45458;-77
2023/07/04 07:06:07;;;;;;;;;8.00;6.00;;;;;21.98;43.10;101058.41;5029868;28;45453;-80
2023/07/04 07:08:34;;;;;;;;;6.00;6.00;;;;;21.93;43.09;101047.06;5031024;28;45431;-78
2023/07/04 07:11:03;;;;;;;;;7.67;4.67;;;;;22.02;42.74;101051.19;5041185;28;45419;-79
2023/07/04 07:13:29;;;;;;;;;4.00;4.00;;;;;22.10;42.89;101066.88;5040868;28;45417;-73
2023/07/04 07:16:10;;;;;;;;;9.67;6.67;;;;;22.05;42.25;101040.38;5023575;28;47658;-73
2023/07/04 07:18:37;;;;;;;;;7.00;6.00;;;;;22.09;42.23;101065.09;5022516;28;45393;-70
2023/07/04 07:21:05;;;;;;;;;7.00;4.33;;;;;22.00;41.42;101059.22;5038962;28;45421;-74
2023/07/04 07:23:32;;;;;;;;;5.67;5.33;;;;;21.84;41.40;101023.44;5039349;28;45358;-75
2023/07/04 07:26:00;;;;;;;;;4.67;4.67;;;;;22.02;41.60;101051.19;5039797;28;46303;-76
2023/07/04 07:28:28;;;;;;;;;5.00;5.00;;;;;22.05;41.72;101050.19;5039456;28;45216;-76
2023/07/04 07:31:06;;;;;;;;;6.00;5.67;;;;;21.99;42.00;101052.13;5040065;28;45272;-75
2023/07/04 07:33:33;;;;;;;;;5.67;4.00;;;;;22.05;42.07;101053.72;5026156;28;45490;-78
2023/07/04 07:35:59;;;;;;;;;7.00;6.33;;;;;21.99;42.25;101052.13;5040475;28;46035;-76
2023/07/04 07:38:26;;;;;;;;;7.67;7.33;;;;;21.98;42.37;101055.75;5044374;28;45333;-77
2023/07/04 07:40:54;;;;;;;;;7.33;7.33;;;;;21.88;42.33;101038.41;5052609;28;45268;-77
2023/07/04 07:43:21;;;;;;;;;7.00;5.67;;;;;21.92;42.31;101041.78;5033840;28;44928;-76
2023/07/04 07:45:48;;;;;;;;;7.00;7.00;;;;;21.89;42.21;101034.78;5026668;28;46977;-78
2023/07/04 07:48:17;;;;;;;;;6.00;5.00;;;;;21.98;41.75;101042.41;5042759;28;45543;-75
2023/07/04 07:50:44;;;;;;;;;8.00;5.00;;;;;22.13;41.79;101042.72;5045227;28;45462;-75
2023/07/04 07:53:10;;;;;;;;;7.00;7.00;;;;;22.30;41.43;101045.56;5042756;28;45355;-75
2023/07/04 07:55:38;;;;;;;;;5.00;4.33;;;;;22.39;41.52;101041.66;5041847;28;45409;-76
2023/07/04 07:58:11;;;;;;;;;6.33;4.33;;;;;22.52;41.22;101031.31;5041340;28;45373;-75
2023/07/04 08:00:37;;;;;;;;;10.00;7.00;;;;;22.58;40.30;101028.41;5038381;28;45382;-76
2023/07/04 08:03:09;;;;;;;;;5.33;5.00;;;;;22.51;40.07;101024.25;5042471;28;45624;-78
2023/07/04 08:05:41;;;;;;;;;6.00;6.00;;;;;22.42;39.96;101012.16;5037462;28;45425;-78
2023/07/04 08:08:08;;;;;;;;;11.00;5.67;;;;;22.58;40.05;101029.25;5021091;28;45608;-75
2023/07/04 08:10:40;;;;;;;;;7.33;5.67;;;;;22.70;40.10;101027.84;5011335;28;45510;-76
2023/07/04 08:13:08;;;;;;;;;4.67;4.67;;;;;22.76;39.68;101018.72;5035297;28;45407;-75
2023/07/04 08:15:34;;;;;;;;;7.67;5.33;;;;;22.78;39.25;101028.41;5021056;28;46318;-74
2023/07/04 08:18:10;;;;;;;;;7.00;5.00;;;;;22.47;40.16;100994.19;5027044;28;45518;-75
2023/07/04 08:20:36;;;;;;;;;6.33;5.33;;;;;22.64;39.82;101022.81;5039474;28;45530;-76
2023/07/04 08:23:02;;;;;;;;;6.33;4.67;;;;;22.62;39.83;101014.00;5040023;28;45695;-76
2023/07/04 08:25:28;;;;;;;;;5.00;4.33;;;;;22.59;39.61;101020.34;5038802;28;45458;-76
2023/07/04 08:27:54;;;;;;;;;8.67;5.00;;;;;22.54;39.59;101022.34;5038858;28;45431;-74
2023/07/04 08:30:21;;;;;;;;;6.67;5.67;;;;;22.64;39.74;101020.13;5039404;28;45425;-75
2023/07/04 08:32:57;;;;;;;;;11.00;6.33;;;;;22.71;39.77;101020.72;5039333;28;45481;-76
2023/07/04 08:35:23;;;;;;;;;6.33;5.33;;;;;22.69;39.28;100998.56;5033239;28;46807;-75
2023/07/04 08:37:49;;;;;;;;;4.33;3.00;;;;;22.84;39.25;101021.91;5023135;28;45531;-75
2023/07/04 08:40:16;;;;;;;;;7.67;5.67;;;;;22.98;38.85;101024.84;5041350;28;45889;-73
2023/07/04 08:42:43;;;;;;;;;6.67;6.33;;;;;23.09;39.26;101016.38;5040939;28;45427;-75
2023/07/04 08:45:21;;;;;;;;;9.00;8.67;;;;;23.16;39.40;101009.81;5040031;28;45478;-76
2023/07/04 08:47:47;;;;;;;;;7.00;5.67;;;;;23.21;39.19;101004.25;5038754;28;45277;-77
2023/07/04 08:50:27;;;;;;;;;9.00;5.00;;;;;23.34;38.64;101008.06;5039170;28;45505;-77
2023/07/04 08:53:01;;;;;;;;;6.67;6.00;;;;;23.23;39.08;101003.25;5039587;28;45391;-77
2023/07/04 08:55:31;;;;;;;;;12.67;6.00;;;;;23.24;39.16;100994.28;5038824;28;46178;-75
2023/07/04 08:58:03;;;;;;;;;4.33;4.33;;;;;23.31;38.81;100972.63;5038722;28;45784;-78
2023/07/04 09:00:43;;;;;;;;;9.00;5.33;;;;;23.58;38.69;100992.66;5039986;28;45523;-79
2023/07/04 09:03:31;;;;;;;;;7.00;5.33;;;;;23.48;38.33;100976.19;5040190;28;45451;-79
2023/07/04 09:06:14;;;;;;;;;9.00;5.33;;;;;23.51;38.75;100999.25;5037669;28;45448;-75
2023/07/04 09:09:10;;;;;;;;;12.67;8.00;;;;;23.53;38.93;101002.72;5020568;28;45548;-74
2023/07/04 09:11:39;;;;;;;;;9.33;5.67;;;;;23.72;39.00;100997.34;5039364;28;45425;-77
2023/07/04 09:14:43;;;;;;;;;9.67;7.00;;;;;23.82;39.00;100995.97;5038672;28;45431;-77
2023/07/04 09:17:29;;;;;;;;;7.33;6.67;;;;;23.77;39.37;100971.28;5035049;28;46210;-74
2023/07/04 09:19:57;;;;;;;;;7.67;6.33;;;;;23.88;38.57;100987.66;5037567;28;45481;-75
2023/07/04 09:22:23;;;;;;;;;8.00;6.00;;;;;23.60;39.42;100988.13;5039242;28;45431;-75
2023/07/04 09:24:53;;;;;;;;;9.33;7.33;;;;;23.05;39.52;100897.22;5039869;28;45319;-77
2023/07/04 09:27:29;;;;;;;;;7.33;7.00;;;;;23.44;39.55;100947.91;5019485;28;47053;-74
2023/07/04 09:29:57;;;;;;;;;11.00;7.00;;;;;23.09;39.58;100896.16;5019343;28;45419;-75
2023/07/04 09:32:23;;;;;;;;;8.00;6.67;;;;;23.78;39.67;100982.88;5037644;28;45340;-74
2023/07/04 09:34:59;;;;;;;;;8.67;7.67;;;;;24.04;39.35;100969.03;5037406;28;45538;-76
2023/07/04 09:37:26;;;;;;;;;8.67;8.00;;;;;24.24;38.72;100976.03;5037076;28;45486;-76
2023/07/04 09:39:57;;;;;;;;;7.00;7.00;;;;;23.82;39.16;100915.75;5038061;28;45476;-74
2023/07/04 09:42:45;;;;;;;;;8.33;6.67;;;;;23.92;38.88;100951.81;5035751;28;45439;-76
2023/07/04 09:45:13;;;;;;;;;5.00;4.33;;;;;24.09;39.22;100972.34;5036102;28;45442;-75
2023/07/04 09:47:44;;;;;;;;;10.67;8.00;;;;;24.28;38.60;100974.09;5038087;28;46082;-75
2023/07/04 09:50:13;;;;;;;;;7.67;7.67;;;;;24.33;37.60;100975.56;5037582;28;45268;-76
2023/07/04 09:52:40;;;;;;;;;7.33;6.33;;;;;24.26;37.93;100966.13;5037822;28;45395;-77
2023/07/04 09:55:27;;;;;;;;;7.00;6.00;;;;;24.26;37.65;100967.94;5038115;28;45268;-74
2023/07/04 09:57:52;;;;;;;;;6.33;6.33;;;;;24.35;37.91;100967.47;5019610;28;45548;-76
2023/07/04 10:00:24;;;;;;;;;10.67;7.33;;;;;24.48;38.05;100975.75;5020319;28;45665;-75
2023/07/04 10:02:56;;;;;;;;;9.33;7.00;;;;;24.56;37.94;100968.22;5031056;28;45542;-74
2023/07/04 10:05:35;;;;;;;;;9.33;6.33;;;;;24.59;37.69;100965.34;5033892;28;45514;-75
2023/07/04 10:08:08;;;;;;;;;7.00;7.00;;;;;24.80;37.68;100949.94;5019604;28;46497;-74
2023/07/04 10:10:48;;;;;;;;;10.67;6.00;;;;;25.07;36.97;100950.25;5035997;28;45447;-72
2023/07/04 10:13:15;;;;;;;;;8.67;5.67;;;;;25.36;36.94;100963.88;5034746;28;45543;-73
2023/07/04 10:15:45;;;;;;;;;9.00;7.67;;;;;25.25;36.48;100945.72;5034085;28;45726;-76
2023/07/04 10:18:29;;;;;;;;;6.00;6.00;;;;;25.39;36.55;100944.94;5038524;28;45534;-74
2023/07/04 10:20:57;;;;;;;;;9.00;6.67;;;;;25.28;37.10;100929.47;5033582;28;45365;-75
2023/07/04 10:23:26;;;;;;;;;10.00;6.00;;;;;25.44;37.13;100941.97;5037192;28;45403;-75
2023/07/04 10:25:54;;;;;;;;;10.67;7.33;;;;;25.33;37.24;100897.03;5036823;28;45633;-75
2023/07/04 10:28:25;;;;;;;;;7.33;6.67;;;;;25.57;36.53;100934.97;5036965;28;46567;-75
2023/07/04 10:30:55;;;;;;;;;9.00;6.33;;;;;25.29;36.68;100936.53;5037613;28;45415;-74
2023/07/04 10:33:32;;;;;;;;;11.67;7.00;;;;;25.28;37.21;100940.19;5036619;28;45478;-74
2023/07/04 10:35:57;;;;;;;;;8.67;8.00;;;;;25.24;37.84;100933.25;5038381;28;45359;-75
2023/07/04 10:38:46;;;;;;;;;7.33;7.00;;;;;25.35;37.71;100938.88;5035855;28;45497;-74
2023/07/04 10:41:35;;;;;;;;;9.00;6.75;;;;;25.43;37.69;100930.41;5019337;28;45888;-73
2023/07/04 10:44:23;;;;;;;;;8.67;7.00;;;;;25.43;37.03;100926.84;5032128;28;45217;-73
2023/07/04 10:46:57;;;;;;;;;7.00;6.00;;;;;25.39;37.51;100910.94;5010524;28;45362;-73
2023/07/04 10:49:30;;;;;;;;;7.33;6.33;;;;;25.43;37.24;100910.78;5035584;28;46000;-73
2023/07/04 10:52:21;;;;;;;;;8.33;8.00;;;;;25.23;37.31;100885.13;5039414;28;45642;-74
2023/07/04 10:54:47;;;;;;;;;12.33;7.67;;;;;25.49;37.52;100923.84;5019484;28;45497;-74
2023/07/04 10:57:36;;;;;;;;;13.67;8.33;;;;;25.49;37.38;100916.66;5044066;28;45440;-75
2023/07/04 11:00:23;;;;;;;;;7.33;6.33;;;;;25.69;37.47;100914.63;5025503;28;47879;-74
2023/07/04 11:02:54;;;;;;;;;7.00;7.00;;;;;25.71;37.07;100907.34;5044615;28;45296;-75
2023/07/04 11:05:35;;;;;;;;;11.33;8.67;;;;;25.69;37.35;100893.16;5045160;28;45299;-73
2023/07/04 11:08:02;;;;;;;;;11.67;9.33;;;;;25.84;37.10;100904.78;5039050;28;45610;-74
2023/07/04 11:10:31;;;;;;;;;6.00;6.00;;;;;25.88;37.04;100895.66;5037684;28;46209;-73
2023/07/04 11:12:57;;;;;;;;;9.00;7.33;;;;;26.00;37.34;100900.28;5038005;28;45576;-73
2023/07/04 11:15:30;;;;;;;;;10.33;7.33;;;;;25.96;37.18;100899.63;5035612;28;45648;-72
2023/07/04 11:17:56;;;;;;;;;9.00;9.00;;;;;26.02;36.59;100895.69;5018627;28;45396;-76
2023/07/04 11:20:30;;;;;;;;;13.33;10.67;;;;;26.13;37.52;100887.84;5032767;28;45801;-75
2023/07/04 11:23:16;;;;;;;;;80.00;73.00;;;;;26.35;37.02;100884.72;5037071;28;45542;-75
2023/07/04 11:25:41;;;;;;;;;47.33;37.67;;;;;26.55;36.58;100874.59;5018115;28;45491;-73
2023/07/04 11:28:27;;;;;;;;;139.00;125.33;;;;;26.77;37.02;100866.06;5036155;28;45389;-74
2023/07/04 11:31:18;;;;;;;;;77.25;68.50;;;;;26.93;36.13;100858.69;5030106;28;45445;-73
2023/07/04 11:33:52;;;;;;;;;12.00;10.00;;;;;26.92;35.28;100867.75;5036487;28;45471;-73
2023/07/04 11:36:33;;;;;;;;;10.75;8.25;;;;;26.78;35.56;100862.38;5037221;28;45688;-72